createdAt,value
2023-09-06T03:31:34.220Z,8.78
2023-09-06T03:36:49.251Z,8.78
2023-09-06T03:42:05.642Z,8.75
2023-09-06T03:47:22.501Z,8.75
2023-09-06T03:52:38.560Z,8.7
2023-09-06T04:03:52.258Z,8.68
2023-09-06T04:09:27.924Z,8.65
2023-09-06T04:14:44.520Z,8.65
2023-09-06T04:19:59.604Z,8.53
2023-09-06T04:25:16.421Z,8.53
2023-09-06T04:28:42.964Z,8.53
2023-09-06T04:33:52.250Z,8.56
2023-09-06T04:39:10.971Z,8.68
2023-09-06T04:44:26.670Z,8.68
2023-09-06T04:49:42.661Z,8.57
2023-09-06T04:55:04.844Z,8.57
2023-09-06T05:00:21.748Z,8.53
2023-09-06T05:05:38.499Z,8.53
2023-09-06T05:11:13.554Z,8.6
2023-09-06T05:16:30.060Z,8.6
2023-09-06T05:21:46.569Z,8.56
2023-09-06T05:27:06.535Z,8.56
2023-09-06T05:32:54.923Z,8.62
2023-09-06T05:38:12.776Z,8.54
2023-09-06T05:40:21.587Z,8.54
2023-09-06T05:45:31.140Z,8.54
2023-09-06T05:50:49.192Z,8.59
2023-09-06T05:52:52.955Z,8.59
2023-09-06T05:57:56.996Z,8.59
2023-09-06T06:03:25.836Z,8.74
2023-09-06T06:21:25.916Z,8.66
2023-09-06T06:26:56.292Z,8.66
2023-09-06T06:32:25.088Z,8.78
2023-09-06T06:38:45.369Z,8.85
2023-09-06T07:06:37.707Z,8.68
2023-09-06T07:12:05.398Z,8.71
2023-09-06T07:17:21.278Z,8.71
2023-09-06T07:22:37.443Z,8.55
2023-09-06T07:27:54.525Z,8.55
2023-09-06T07:33:14.694Z,8.66
2023-09-06T07:38:36.415Z,8.57
2023-09-06T07:44:50.168Z,8.57
2023-09-06T07:50:45.417Z,8.64
2023-09-06T07:56:07.799Z,8.64
2023-09-06T08:04:21.533Z,8.57
2023-09-06T08:09:31.249Z,8.61
2023-09-06T08:14:40.421Z,8.61
2023-09-06T08:19:52.388Z,8.56
2023-09-06T08:25:10.133Z,8.56
2023-09-06T08:30:27.052Z,8.63
2023-09-06T08:37:33.925Z,8.63
2023-09-06T08:40:02.568Z,8.63
2023-09-06T08:45:10.726Z,8.48
2023-09-06T08:50:29.390Z,8.68
2023-09-06T08:55:46.506Z,8.68
2023-09-06T09:01:02.683Z,8.51
2023-09-06T09:06:19.890Z,8.51
2023-09-06T09:11:35.315Z,8.81
2023-09-06T09:16:51.690Z,8.81
2023-09-06T09:22:09.740Z,8.48
2023-09-06T09:27:24.184Z,8.48
2023-09-06T09:32:43.765Z,8.55
2023-09-06T09:37:59.947Z,8.55
2023-09-06T09:43:16.359Z,8.56
2023-09-06T09:48:32.506Z,8.56
2023-09-06T09:53:48.720Z,8.54
2023-09-06T09:59:02.668Z,8.54
2023-09-06T10:04:20.797Z,8.46
2023-09-06T10:05:53.146Z,8.46
2023-09-06T10:26:56.301Z,8.42
2023-09-06T10:32:05.387Z,8.53
2023-09-06T10:37:20.965Z,8.53
2023-09-06T10:42:37.105Z,8.63
2023-09-06T10:47:52.973Z,8.63
2023-09-06T10:53:09.032Z,8.48
2023-09-06T10:58:26.009Z,8.48
2023-09-06T11:03:41.936Z,8.48
2023-09-06T11:08:58.295Z,8.48
2023-09-06T11:14:41.885Z,8.56
2023-09-06T11:19:58.091Z,8.43
2023-09-06T11:25:14.468Z,8.43
2023-09-06T11:30:32.976Z,8.37
2023-09-06T11:35:48.026Z,8.37
2023-09-06T11:46:20.653Z,8.53
2023-09-06T11:51:37.151Z,8.39
2023-09-06T11:56:46.340Z,8.39
2023-09-06T12:02:04.307Z,8.42
2023-09-06T12:07:19.928Z,8.42
2023-09-06T12:12:37.015Z,8.36
2023-09-06T12:17:54.658Z,8.36
2023-09-06T12:23:09.080Z,8.42
2023-09-06T12:28:24.573Z,8.42
2023-09-06T12:45:12.408Z,8.39
2023-09-06T12:50:29.341Z,8.45
2023-09-06T12:55:45.522Z,8.45
2023-09-06T13:01:02.525Z,8.4
2023-09-06T13:06:19.162Z,8.4
2023-09-06T13:11:35.342Z,8.33
2023-09-06T13:16:52.678Z,8.33
2023-09-06T13:22:08.297Z,8.57
2023-09-06T13:27:51.942Z,8.57
2023-09-06T13:33:08.976Z,8.29
2023-09-06T13:38:25.580Z,8.29
2023-09-06T13:43:41.890Z,8.44
2023-09-06T13:48:56.809Z,8.44
2023-09-06T13:54:44.075Z,8.32
2023-09-06T14:00:00.907Z,8.32
2023-09-06T14:05:18.363Z,8.34
2023-09-06T14:10:34.817Z,8.34
2023-09-06T14:15:50.812Z,8.29
2023-09-06T14:21:09.654Z,8.39
2023-09-06T14:26:24.290Z,8.39
2023-09-06T14:31:41.444Z,8.38
2023-09-06T14:36:56.382Z,8.38
2023-09-06T14:42:10.873Z,8.37
2023-09-06T14:44:28.404Z,8.37
2023-09-06T14:49:37.616Z,8.37
2023-09-06T14:54:53.786Z,8.52
2023-09-06T15:00:10.196Z,8.52
2023-09-06T15:05:26.661Z,8.28
2023-09-06T15:10:44.105Z,8.28
2023-09-06T15:16:00.277Z,8.58
2023-09-06T15:21:15.971Z,8.33
2023-09-06T15:26:31.945Z,8.33
2023-09-06T15:31:49.868Z,8.38
2023-09-06T15:37:05.539Z,8.38
2023-09-06T15:42:21.966Z,8.42
2023-09-06T15:47:42.507Z,8.42
2023-09-06T16:20:34.534Z,8.44
2023-09-06T16:27:48.130Z,8.29
2023-09-06T16:32:58.339Z,8.46
2023-09-06T16:38:14.811Z,8.46
2023-09-06T16:43:30.804Z,8.37
2023-09-06T16:48:46.470Z,8.37
2023-09-06T16:54:03.130Z,8.34
2023-09-06T16:59:18.972Z,8.34
2023-09-06T17:04:34.866Z,8.44
2023-09-06T17:09:51.748Z,8.44
2023-09-06T17:15:26.325Z,8.41
2023-09-06T17:20:42.480Z,8.41
2023-09-06T17:26:00.227Z,8.46
2023-09-06T17:31:15.695Z,8.46
2023-09-06T17:36:37.889Z,8.32
2023-09-06T17:41:48.435Z,8.32
2023-09-06T17:47:05.210Z,8.38
2023-09-06T17:52:21.371Z,8.49
2023-09-06T17:57:37.525Z,8.49
2023-09-06T18:02:55.493Z,8.43
2023-09-06T18:08:25.840Z,8.43
2023-09-06T18:10:22.738Z,8.43
2023-09-06T18:15:31.633Z,8.48
2023-09-06T18:21:15.901Z,8.48
2023-09-06T18:26:31.284Z,8.39
2023-09-06T18:31:46.952Z,8.39
2023-09-06T18:37:02.450Z,8.54
2023-09-06T18:42:18.579Z,8.58
2023-09-06T18:47:36.452Z,8.58
2023-09-06T18:52:51.868Z,8.39
2023-09-06T18:58:08.461Z,8.39
2023-09-06T19:54:25.237Z,8.46
2023-09-06T19:59:34.042Z,8.55
2023-09-06T20:05:15.897Z,8.45
2023-09-06T20:10:30.049Z,8.45
2023-09-06T20:15:46.003Z,8.49
2023-09-06T20:21:02.082Z,8.49
2023-09-06T20:26:19.353Z,8.67
2023-09-06T20:31:34.319Z,8.67
2023-09-06T20:36:50.994Z,8.78
2023-09-06T20:42:05.364Z,8.78
2023-09-06T20:47:20.556Z,8.64
2023-09-06T20:52:35.982Z,8.64
2023-09-06T20:57:52.475Z,8.56
2023-09-06T21:03:09.486Z,8.6
2023-09-06T21:08:24.116Z,8.6
2023-09-06T21:13:40.158Z,8.55
2023-09-06T21:18:58.118Z,8.55
2023-09-06T21:24:14.592Z,8.6
2023-09-06T21:29:32.418Z,8.6
2023-09-06T21:34:49.239Z,8.53
2023-09-06T21:40:41.196Z,8.53
2023-09-06T21:45:58.034Z,8.43
2023-09-06T21:51:14.876Z,8.43
2023-09-06T21:56:31.905Z,8.46
2023-09-06T22:01:47.191Z,8.46
2023-09-06T22:07:03.656Z,8.48
2023-09-06T22:12:18.793Z,8.48
2023-09-06T22:17:35.172Z,8.46
2023-09-06T22:22:50.510Z,8.46
2023-09-06T22:28:05.997Z,8.5
2023-09-06T22:33:21.542Z,8.5
2023-09-06T22:38:36.421Z,8.5
2023-09-06T22:43:53.226Z,8.74
2023-09-06T22:49:08.905Z,8.74
2023-09-06T22:54:25.143Z,8.7
2023-09-06T22:59:41.673Z,8.7
2023-09-06T23:04:58.468Z,8.6
2023-09-06T23:10:14.275Z,8.6
2023-09-06T23:16:14.369Z,8.67
2023-09-06T23:21:30.477Z,8.67
2023-09-06T23:26:47.427Z,8.75
2023-09-06T23:32:04.456Z,8.75
2023-09-06T23:37:22.373Z,8.54
2023-09-06T23:42:38.348Z,8.54
2023-09-06T23:47:56.445Z,8.73
2023-09-06T23:53:12.033Z,8.73
2023-09-06T23:59:11.702Z,8.76
